Time;durP1;ratioP1;P1;durP2;ratioP2;P2;SDS_P1;SDS_P2;PMS_P1;PMS_P2;Temp;Humidity;BMP_temperature;BMP_pressure;BME280_temperature;BME280_humidity;BME280_pressure;Samples;Min_cycle;Max_cycle;Signal;HPM_P1;HPM_P2
2021/12/14 00:02:26;;;;;;;11.15;6.80;;;7.70;99.90;;;;;;5093950;28;20180;-61
2021/12/14 00:04:52;;;;;;;9.73;6.30;;;7.60;99.90;;;;;;5094403;28;20199;-61
2021/12/14 00:07:19;;;;;;;8.40;5.63;;;7.60;99.90;;;;;;5093781;28;20643;-61
2021/12/14 00:09:45;;;;;;;8.10;5.53;;;7.60;99.90;;;;;;5093591;28;20176;-61
2021/12/14 00:15:11;;;;;;;6.95;5.22;;;7.60;99.90;;;;;;5073749;28;20185;-61
2021/12/14 00:17:53;;;;;;;6.35;4.80;;;7.60;99.90;;;;;;5082113;28;20190;-61
2021/12/14 00:20:24;;;;;;;6.55;4.75;;;7.60;99.90;;;;;;5093631;28;20511;-61
2021/12/14 00:25:20;;;;;;;7.80;5.15;;;7.60;99.90;;;;;;5093080;28;20176;-59
2021/12/14 00:27:46;;;;;;;7.80;4.97;;;7.60;99.90;;;;;;5093498;28;20175;-58
2021/12/14 00:30:12;;;;;;;6.97;4.90;;;7.70;99.90;;;;;;5093803;28;20654;-58
2021/12/14 00:32:38;;;;;;;8.88;5.13;;;7.70;99.90;;;;;;5088857;28;20203;-61
2021/12/14 00:35:11;;;;;;;6.82;4.80;;;7.60;99.90;;;;;;5093812;28;20168;-61
2021/12/14 00:37:39;;;;;;;6.90;4.90;;;7.60;99.90;;;;;;5093439;28;20184;-61
2021/12/14 00:40:17;;;;;;;5.75;4.55;;;7.60;99.90;;;;;;5093696;28;20251;-61
2021/12/14 00:42:43;;;;;;;7.53;4.57;;;7.60;99.90;;;;;;5093536;28;20172;-60
2021/12/14 00:45:09;;;;;;;7.68;5.30;;;7.60;99.90;;;;;;5093130;28;20194;-61
2021/12/14 00:47:35;;;;;;;7.18;5.30;;;7.60;99.90;;;;;;5092979;28;20172;-61
2021/12/14 00:50:01;;;;;;;6.45;5.20;;;7.60;99.90;;;;;;5092985;28;20172;-61
2021/12/14 00:52:26;;;;;;;8.60;5.40;;;7.60;99.90;;;;;;5092009;28;20271;-61
2021/12/14 00:54:52;;;;;;;9.05;5.78;;;7.60;99.90;;;;;;5092399;28;20212;-61
2021/12/14 00:57:18;;;;;;;6.70;4.97;;;7.50;99.90;;;;;;5092332;28;20369;-61
2021/12/14 00:59:44;;;;;;;8.65;5.68;;;7.50;99.90;;;;;;5092503;28;20180;-61
2021/12/14 01:02:16;;;;;;;8.80;5.97;;;7.50;99.90;;;;;;5092875;28;20180;-61
2021/12/14 01:04:50;;;;;;;9.15;5.82;;;7.50;99.90;;;;;;5093183;28;20184;-61
2021/12/14 01:07:18;;;;;;;8.98;5.70;;;7.50;99.90;;;;;;5092954;28;20172;-59
2021/12/14 01:09:50;;;;;;;9.18;6.60;;;7.50;99.90;;;;;;5092593;28;20327;-59
2021/12/14 01:12:29;;;;;;;10.30;6.22;;;7.40;99.90;;;;;;5089860;28;20200;-59
2021/12/14 01:15:12;;;;;;;9.70;6.32;;;7.40;99.90;;;;;;5092689;28;20229;-61
2021/12/14 01:17:53;;;;;;;10.63;6.78;;;7.40;99.90;;;;;;5092258;28;20176;-61
2021/12/14 01:20:19;;;;;;;10.02;7.03;;;7.40;99.90;;;;;;5082051;28;20172;-61
2021/12/14 01:22:47;;;;;;;10.65;6.68;;;7.40;99.90;;;;;;5092488;28;20188;-61
2021/12/14 01:25:21;;;;;;;11.02;7.40;;;7.40;99.90;;;;;;5092649;28;20552;-62
2021/12/14 01:27:59;;;;;;;12.23;8.00;;;7.40;99.90;;;;;;5092388;28;20241;-61
2021/12/14 01:30:32;;;;;;;13.48;7.78;;;7.40;99.90;;;;;;5092611;28;20203;-62
2021/12/14 01:33:04;;;;;;;13.68;8.60;;;7.40;99.90;;;;;;5091766;28;20212;-61
2021/12/14 01:35:32;;;;;;;16.15;9.25;;;7.30;99.90;;;;;;5092291;28;20595;-61
2021/12/14 01:38:03;;;;;;;13.30;8.85;;;7.30;99.90;;;;;;5092379;28;20188;-61
2021/12/14 01:43:24;;;;;;;15.85;9.00;;;7.30;99.90;;;;;;5088569;28;20612;-61
2021/12/14 01:45:50;;;;;;;14.60;8.52;;;7.30;99.90;;;;;;5091711;28;20541;-61
2021/12/14 01:48:16;;;;;;;17.95;10.07;;;7.20;99.90;;;;;;5091263;28;20176;-61
2021/12/14 01:50:47;;;;;;;16.67;10.25;;;7.20;99.90;;;;;;5092097;28;20179;-61
2021/12/14 01:53:14;;;;;;;18.10;10.35;;;7.20;99.90;;;;;;5091805;28;20222;-61
2021/12/14 01:55:43;;;;;;;17.88;10.25;;;7.20;99.90;;;;;;5091250;28;20176;-59
2021/12/14 01:58:10;;;;;;;16.75;9.82;;;7.20;99.90;;;;;;5091684;28;20233;-59
2021/12/14 02:00:36;;;;;;;16.48;9.70;;;7.20;99.90;;;;;;5091235;28;20212;-59
2021/12/14 02:03:04;;;;;;;16.20;9.48;;;7.20;99.90;;;;;;5090833;28;20229;-59
2021/12/14 02:05:50;;;;;;;14.20;8.52;;;7.20;99.90;;;;;;5091490;28;20176;-59
2021/12/14 02:08:28;;;;;;;15.18;8.77;;;7.20;99.90;;;;;;5087586;28;20276;-59
2021/12/14 02:10:57;;;;;;;15.07;8.35;;;7.20;99.90;;;;;;5074858;28;20180;-59
2021/12/14 02:13:30;;;;;;;15.07;8.15;;;7.10;99.90;;;;;;5084104;28;20224;-59
2021/12/14 02:15:57;;;;;;;16.33;8.20;;;7.10;99.90;;;;;;5082113;28;20207;-59
2021/12/14 02:18:25;;;;;;;17.45;8.38;;;7.00;99.90;;;;;;5085267;28;20181;-59
2021/12/14 02:20:55;;;;;;;16.77;8.65;;;7.00;99.90;;;;;;5081588;28;20180;-58
2021/12/14 02:23:20;;;;;;;17.17;8.27;;;7.00;99.90;;;;;;5075510;28;20220;-59
2021/12/14 02:25:48;;;;;;;13.68;8.13;;;7.00;99.90;;;;;;5087370;28;20257;-59
2021/12/14 02:28:18;;;;;;;13.60;7.68;;;7.00;99.90;;;;;;5084747;28;20211;-59
2021/12/14 02:30:46;;;;;;;19.90;8.48;;;7.00;99.90;;;;;;5090080;28;20196;-59
2021/12/14 02:33:25;;;;;;;14.23;7.45;;;7.00;99.90;;;;;;5090779;28;20208;-59
2021/12/14 02:35:52;;;;;;;16.10;7.35;;;7.00;99.90;;;;;;5093991;28;20541;-59
2021/12/14 02:38:19;;;;;;;17.40;8.02;;;7.10;99.90;;;;;;5095203;28;20651;-59
2021/12/14 02:40:57;;;;;;;14.52;7.22;;;7.10;99.90;;;;;;5094906;28;20262;-59
2021/12/14 02:43:34;;;;;;;13.52;7.45;;;7.10;99.90;;;;;;5094778;28;20226;-59
2021/12/14 02:46:14;;;;;;;11.98;6.78;;;7.10;99.90;;;;;;5079596;28;20179;-59
2021/12/14 02:48:43;;;;;;;11.00;6.57;;;7.10;99.90;;;;;;5095076;28;20650;-59
2021/12/14 02:51:23;;;;;;;12.55;6.95;;;7.10;99.90;;;;;;5094492;28;20646;-59
2021/12/14 02:53:52;;;;;;;14.50;6.82;;;7.10;99.90;;;;;;5093713;28;20212;-58
2021/12/14 02:56:21;;;;;;;15.05;7.53;;;7.10;99.90;;;;;;5080867;28;20212;-59
2021/12/14 02:58:48;;;;;;;10.88;6.72;;;7.20;99.90;;;;;;5094599;28;20180;-58
2021/12/14 03:01:15;;;;;;;16.55;7.78;;;7.20;99.90;;;;;;5094738;28;20190;-60
2021/12/14 03:03:42;;;;;;;16.55;8.00;;;7.20;99.90;;;;;;5092988;28;20213;-59
2021/12/14 03:06:10;;;;;;;14.70;7.35;;;7.20;99.90;;;;;;5093371;28;20271;-60
2021/12/14 03:08:44;;;;;;;11.63;6.28;;;7.10;99.90;;;;;;5094687;28;20184;-60
2021/12/14 03:11:11;;;;;;;12.10;6.75;;;7.10;99.90;;;;;;5095015;28;20190;-59
2021/12/14 03:13:51;;;;;;;12.18;7.05;;;7.10;99.90;;;;;;5094781;28;20699;-60
2021/12/14 03:16:27;;;;;;;9.27;6.25;;;7.10;99.90;;;;;;5095063;28;20180;-60
2021/12/14 03:18:55;;;;;;;13.35;7.90;;;7.10;99.90;;;;;;5094987;28;20184;-59
2021/12/14 03:21:34;;;;;;;16.10;8.82;;;7.10;99.90;;;;;;5094703;28;20172;-60
2021/12/14 03:24:09;;;;;;;20.88;8.80;;;7.10;99.90;;;;;;5094944;28;20653;-59
2021/12/14 03:26:38;;;;;;;21.38;9.05;;;7.10;99.90;;;;;;5094532;28;20700;-60
2021/12/14 03:29:11;;;;;;;17.63;8.32;;;7.10;99.90;;;;;;5094666;28;20191;-60
2021/12/14 03:31:41;;;;;;;18.95;8.85;;;7.10;99.90;;;;;;5094454;28;20176;-60
2021/12/14 03:34:23;;;;;;;10.80;6.38;;;7.10;99.90;;;;;;5094684;28;20188;-60
2021/12/14 03:36:53;;;;;;;10.02;5.25;;;7.20;99.90;;;;;;5094673;28;20188;-60
2021/12/14 03:39:36;;;;;;;8.23;5.70;;;7.20;99.90;;;;;;5094617;28;20180;-60
2021/12/14 03:42:12;;;;;;;11.15;6.80;;;7.20;99.90;;;;;;5094595;28;20172;-60
2021/12/14 03:44:42;;;;;;;10.77;6.90;;;7.10;99.90;;;;;;5094466;28;20179;-59
2021/12/14 03:47:18;;;;;;;10.48;6.43;;;7.10;99.90;;;;;;5093186;28;20212;-59
2021/12/14 03:49:54;;;;;;;8.77;5.95;;;7.10;99.90;;;;;;5094102;28;20191;-60
2021/12/14 03:52:25;;;;;;;9.30;6.20;;;7.10;99.90;;;;;;5094450;28;20200;-59
2021/12/14 03:54:51;;;;;;;7.38;5.38;;;7.10;99.90;;;;;;5094140;28;20187;-60
2021/12/14 03:57:16;;;;;;;8.98;6.15;;;7.10;99.90;;;;;;5094400;28;20235;-60
2021/12/14 03:59:43;;;;;;;8.20;5.57;;;7.00;99.90;;;;;;5094106;28;20188;-60
2021/12/14 04:02:12;;;;;;;7.97;6.20;;;7.00;99.90;;;;;;5093469;28;20176;-59
2021/12/14 04:04:46;;;;;;;8.25;5.88;;;7.00;99.90;;;;;;5093890;28;20576;-60
2021/12/14 04:07:14;;;;;;;9.20;6.13;;;7.00;99.90;;;;;;5093965;28;20187;-59
2021/12/14 04:09:41;;;;;;;11.15;5.75;;;7.00;99.90;;;;;;5094264;28;20218;-59
2021/12/14 04:12:13;;;;;;;9.70;6.43;;;7.00;99.90;;;;;;5093862;28;20772;-59
2021/12/14 04:14:41;;;;;;;10.55;6.35;;;7.00;99.90;;;;;;5093999;28;20180;-59
2021/12/14 04:17:09;;;;;;;9.68;6.43;;;7.00;99.90;;;;;;5093480;28;20203;-59
2021/12/14 04:19:36;;;;;;;9.18;6.30;;;7.00;99.90;;;;;;5093097;28;20215;-59
2021/12/14 04:22:10;;;;;;;10.00;6.50;;;7.00;99.90;;;;;;5093727;28;20565;-59
2021/12/14 04:24:37;;;;;;;10.00;6.13;;;7.00;99.90;;;;;;5093458;28;20234;-60
2021/12/14 04:27:10;;;;;;;9.43;6.50;;;7.00;99.90;;;;;;5093402;28;20180;-59
2021/12/14 04:29:36;;;;;;;10.02;6.60;;;7.00;99.90;;;;;;5093563;28;20214;-60
2021/12/14 04:32:03;;;;;;;8.25;6.00;;;7.00;99.90;;;;;;5093183;28;20605;-59
2021/12/14 04:34:31;;;;;;;9.00;6.32;;;7.00;99.90;;;;;;5093143;28;20221;-59
2021/12/14 04:36:58;;;;;;;10.50;6.45;;;7.00;99.90;;;;;;5092074;28;20522;-59
2021/12/14 04:53:28;;;;;;;8.30;5.90;;;7.10;99.90;;;;;;5092479;28;20709;-60
2021/12/14 04:55:56;;;;;;;8.82;6.45;;;7.10;99.90;;;;;;5067197;28;20270;-60
2021/12/14 04:58:32;;;;;;;9.65;6.30;;;7.10;99.90;;;;;;5082658;28;20176;-60
2021/12/14 05:00:59;;;;;;;8.00;6.20;;;7.00;99.90;;;;;;5093293;28;20207;-60
2021/12/14 05:03:36;;;;;;;11.40;7.22;;;7.00;99.90;;;;;;5093205;28;20356;-60
2021/12/14 05:06:14;;;;;;;9.45;6.15;;;7.00;99.90;;;;;;5093296;28;20180;-60
2021/12/14 05:11:12;;;;;;;10.40;6.78;;;6.90;99.90;;;;;;5092979;28;20176;-60
2021/12/14 05:13:45;;;;;;;8.90;6.22;;;6.90;99.90;;;;;;5092539;28;20219;-60
2021/12/14 05:16:27;;;;;;;10.27;7.07;;;6.80;99.90;;;;;;5092899;28;20176;-60
2021/12/14 05:18:56;;;;;;;10.50;7.03;;;6.80;99.90;;;;;;5092363;28;20180;-60
2021/12/14 05:21:38;;;;;;;10.38;6.82;;;6.80;99.90;;;;;;5092534;28;20172;-59
2021/12/14 05:24:07;;;;;;;9.85;6.88;;;6.80;99.90;;;;;;5088819;28;20266;-59
2021/12/14 05:26:34;;;;;;;10.70;6.65;;;6.80;99.90;;;;;;5089798;28;20240;-59
2021/12/14 05:29:00;;;;;;;9.30;6.97;;;6.80;99.90;;;;;;5091984;28;20188;-59
2021/12/14 05:31:25;;;;;;;9.30;5.90;;;6.80;99.90;;;;;;5092123;28;20727;-60
2021/12/14 05:33:52;;;;;;;9.20;6.15;;;6.80;99.90;;;;;;5092189;28;20219;-57
2021/12/14 05:36:19;;;;;;;8.68;6.53;;;6.80;99.90;;;;;;5091901;28;20241;-61
2021/12/14 05:39:06;;;;;;;8.68;5.90;;;6.80;99.90;;;;;;5091639;28;20184;-58
2021/12/14 05:44:18;;;;;;;10.18;6.57;;;6.70;99.90;;;;;;5082184;28;20184;-60
2021/12/14 05:46:50;;;;;;;10.45;6.97;;;6.80;99.90;;;;;;5091566;28;20694;-59
2021/12/14 05:49:19;;;;;;;10.13;6.80;;;6.80;99.90;;;;;;5091825;28;20212;-59
2021/12/14 05:51:46;;;;;;;39.20;20.90;;;6.80;99.90;;;;;;5072113;28;20575;-58
2021/12/14 05:54:24;;;;;;;22.17;12.68;;;6.80;99.90;;;;;;5090342;28;20188;-59
2021/12/14 05:56:51;;;;;;;11.48;7.00;;;7.30;99.90;;;;;;5092076;28;20230;-59
2021/12/14 05:59:23;;;;;;;10.65;6.55;;;7.40;99.90;;;;;;5091948;28;20188;-59
2021/12/14 06:01:50;;;;;;;9.45;6.75;;;7.40;99.90;;;;;;5090131;28;20211;-59
2021/12/14 06:04:16;;;;;;;9.85;6.60;;;7.30;99.90;;;;;;5091780;28;20622;-60
2021/12/14 06:06:48;;;;;;;10.15;6.90;;;7.20;99.90;;;;;;5090506;28;20187;-58
2021/12/14 06:09:23;;;;;;;10.50;6.65;;;7.10;99.90;;;;;;5091147;28;20583;-61
2021/12/14 06:11:54;;;;;;;13.48;7.55;;;7.00;99.90;;;;;;5091475;28;20639;-60
2021/12/14 06:14:24;;;;;;;10.93;6.65;;;7.00;99.90;;;;;;5091851;28;20180;-62
2021/12/14 06:16:54;;;;;;;11.13;7.07;;;7.00;99.90;;;;;;5091652;28;20180;-60
2021/12/14 06:19:34;;;;;;;11.23;7.25;;;6.90;99.90;;;;;;5091780;28;20212;-60
2021/12/14 06:22:10;;;;;;;15.18;8.02;;;6.90;99.90;;;;;;5091514;28;20562;-61
2021/12/14 06:24:40;;;;;;;12.25;8.18;;;6.80;99.90;;;;;;5090684;28;20179;-60
2021/12/14 06:27:11;;;;;;;11.65;8.00;;;6.80;99.90;;;;;;5084634;28;20211;-61
2021/12/14 06:29:43;;;;;;;11.75;7.93;;;6.80;99.90;;;;;;5091780;28;20164;-61
2021/12/14 06:32:16;;;;;;;14.48;8.57;;;6.80;99.90;;;;;;5090580;28;20209;-59
2021/12/14 06:34:46;;;;;;;10.90;6.97;;;6.80;99.90;;;;;;5091678;28;20195;-60
2021/12/14 06:40:12;;;;;;;10.30;7.30;;;6.70;99.90;;;;;;5073702;28;20169;-60
2021/12/14 06:42:42;;;;;;;10.85;7.32;;;6.60;99.90;;;;;;5091566;28;20164;-60
2021/12/14 06:45:16;;;;;;;10.10;6.03;;;6.60;99.90;;;;;;5090851;28;20192;-59
2021/12/14 06:47:44;;;;;;;9.68;5.78;;;6.60;99.90;;;;;;5091293;28;20178;-59
2021/12/14 06:50:13;;;;;;;9.52;6.10;;;6.50;99.90;;;;;;5091187;28;20221;-59
2021/12/14 06:52:40;;;;;;;9.20;6.63;;;6.50;99.90;;;;;;5091273;28;20203;-59
2021/12/14 06:55:08;;;;;;;9.05;5.72;;;6.40;99.90;;;;;;5091562;28;20253;-60
2021/12/14 06:57:33;;;;;;;11.00;6.43;;;6.40;99.90;;;;;;5091239;28;20238;-59
2021/12/14 07:00:00;;;;;;;8.30;5.47;;;6.40;99.90;;;;;;5091377;28;20180;-60
2021/12/14 07:02:26;;;;;;;8.35;5.20;;;6.30;99.90;;;;;;5091448;28;20176;-61
2021/12/14 07:04:52;;;;;;;9.32;5.22;;;6.30;99.90;;;;;;5091411;28;20180;-61
2021/12/14 07:07:25;;;;;;;9.27;5.63;;;6.30;99.90;;;;;;5091108;28;20200;-61
2021/12/14 07:10:05;;;;;;;10.70;6.32;;;6.30;99.90;;;;;;5091439;28;20670;-61
2021/12/14 07:12:36;;;;;;;10.52;6.65;;;6.30;99.90;;;;;;5091318;28;20211;-61
2021/12/14 07:15:23;;;;;;;17.00;7.38;;;6.40;99.90;;;;;;5090273;28;20168;-61
2021/12/14 07:18:03;;;;;;;12.75;6.72;;;6.40;99.90;;;;;;5091572;28;20176;-61
2021/12/14 07:20:30;;;;;;;12.07;6.95;;;6.40;99.90;;;;;;5092104;28;20168;-62
2021/12/14 07:23:18;;;;;;;11.40;6.72;;;6.40;99.90;;;;;;5095181;28;20254;-60
2021/12/14 07:25:51;;;;;;;12.77;6.88;;;6.40;99.90;;;;;;5095087;28;20172;-61
2021/12/14 07:28:17;;;;;;;11.80;7.15;;;6.40;99.90;;;;;;5094845;28;20678;-62
2021/12/14 07:30:48;;;;;;;11.05;6.95;;;6.40;99.90;;;;;;5095093;28;20180;-62
2021/12/14 07:33:19;;;;;;;12.43;8.07;;;6.40;99.90;;;;;;5094965;28;20208;-62
2021/12/14 07:35:47;;;;;;;13.75;7.38;;;6.40;99.90;;;;;;5095140;28;20168;-61
2021/12/14 07:38:25;;;;;;;12.70;7.65;;;6.40;99.90;;;;;;5094922;28;20538;-61
2021/12/14 07:40:55;;;;;;;13.35;8.05;;;6.40;99.90;;;;;;5094778;28;20229;-59
2021/12/14 07:43:28;;;;;;;14.77;8.18;;;6.40;99.90;;;;;;5094648;28;20176;-60
2021/12/14 07:45:54;;;;;;;18.77;9.43;;;6.40;99.90;;;;;;5094950;28;20214;-60
2021/12/14 07:48:22;;;;;;;19.42;11.07;;;6.40;99.90;;;;;;5094618;28;20222;-61
2021/12/14 07:51:43;;;;;;;16.50;9.13;;;6.40;99.90;;;;;;5094670;28;20631;-61
2021/12/14 07:54:13;;;;;;;16.55;8.10;;;6.40;99.90;;;;;;5070216;28;20212;-61
2021/12/14 07:57:06;;;;;;;17.73;9.57;;;6.40;99.90;;;;;;5094164;28;20220;-61
2021/12/14 07:59:35;;;;;;;16.90;11.10;;;6.30;99.90;;;;;;5088049;28;20231;-61
2021/12/14 08:02:12;;;;;;;19.90;10.38;;;6.30;99.90;;;;;;5094493;28;20172;-61
2021/12/14 08:04:46;;;;;;;19.65;9.98;;;6.40;99.90;;;;;;5094228;28;20187;-61
2021/12/14 08:07:24;;;;;;;17.08;10.00;;;6.40;99.90;;;;;;5094420;28;20198;-61
2021/12/14 08:09:51;;;;;;;16.98;8.75;;;6.40;99.90;;;;;;5094215;28;20631;-61
2021/12/14 08:12:52;;;;;;;16.95;8.82;;;6.40;99.90;;;;;;5094022;28;20215;-60
2021/12/14 08:15:31;;;;;;;18.98;10.25;;;6.40;99.90;;;;;;5094136;28;20328;-60
2021/12/14 08:18:05;;;;;;;19.25;10.85;;;6.40;99.90;;;;;;5094230;28;20215;-61
2021/12/14 08:20:32;;;;;;;17.50;9.68;;;6.40;99.90;;;;;;5094060;28;20242;-61
2021/12/14 08:23:11;;;;;;;22.17;10.27;;;6.40;99.90;;;;;;5092649;28;20200;-62
2021/12/14 08:25:41;;;;;;;23.17;10.85;;;6.40;99.90;;;;;;5093811;28;20164;-60
2021/12/14 08:28:07;;;;;;;17.00;9.32;;;6.40;99.90;;;;;;5094045;28;20229;-60
2021/12/14 08:30:35;;;;;;;24.75;10.35;;;6.40;99.90;;;;;;5093741;28;20168;-60
2021/12/14 08:33:01;;;;;;;21.98;10.57;;;6.30;99.90;;;;;;5093041;28;20697;-61
2021/12/14 08:35:27;;;;;;;23.52;10.68;;;6.30;99.90;;;;;;5093736;28;20267;-62
2021/12/14 08:37:58;;;;;;;22.83;10.55;;;6.30;99.90;;;;;;5093773;28;20741;-61
2021/12/14 08:40:38;;;;;;;25.88;11.52;;;6.30;99.90;;;;;;5093710;28;20164;-60
2021/12/14 08:43:20;;;;;;;20.73;10.43;;;6.40;99.90;;;;;;5092388;28;20557;-60
2021/12/14 08:46:14;;;;;;;22.40;11.13;;;6.40;99.90;;;;;;5093641;28;20261;-60
2021/12/14 08:48:44;;;;;;;26.45;13.55;;;6.50;99.90;;;;;;5090111;28;20191;-60
2021/12/14 08:51:15;;;;;;;24.65;12.73;;;6.50;99.90;;;;;;5092337;28;20180;-60
2021/12/14 08:56:58;;;;;;;28.80;14.23;;;6.40;99.90;;;;;;5085808;28;20694;-60
2021/12/14 08:59:23;;;;;;;38.22;17.27;;;6.40;99.90;;;;;;5093334;28;20188;-60
2021/12/14 09:01:51;;;;;;;36.65;15.88;;;6.40;99.90;;;;;;5093278;28;20649;-60
2021/12/14 09:04:31;;;;;;;27.15;12.60;;;6.40;99.90;;;;;;5092898;28;20187;-60
2021/12/14 09:07:03;;;;;;;29.48;13.75;;;6.50;99.90;;;;;;5093054;28;20540;-61
2021/12/14 09:09:29;;;;;;;25.60;12.10;;;6.50;99.90;;;;;;5093012;28;20225;-61
2021/12/14 09:12:07;;;;;;;23.98;11.20;;;6.50;99.90;;;;;;5093036;28;20230;-60
2021/12/14 09:14:33;;;;;;;27.35;12.27;;;6.50;99.90;;;;;;5092949;28;20168;-60
2021/12/14 09:17:01;;;;;;;32.08;14.13;;;6.60;99.90;;;;;;5092997;28;20172;-60
2021/12/14 09:19:34;;;;;;;30.48;13.65;;;6.60;99.90;;;;;;5093022;28;20224;-61
2021/12/14 09:22:03;;;;;;;37.20;13.63;;;6.60;99.90;;;;;;5092915;28;20537;-61
2021/12/14 09:24:31;;;;;;;32.00;13.73;;;6.60;99.90;;;;;;5091492;28;20176;-61
2021/12/14 09:27:04;;;;;;;33.25;13.55;;;6.60;99.90;;;;;;5092654;28;20269;-61
2021/12/14 09:29:31;;;;;;;33.63;13.63;;;6.70;99.90;;;;;;5092719;28;20187;-61
2021/12/14 09:31:59;;;;;;;31.38;12.50;;;6.60;99.90;;;;;;5092558;28;20263;-61
2021/12/14 09:34:27;;;;;;;27.77;12.73;;;6.70;99.90;;;;;;5091414;28;20531;-61
2021/12/14 09:36:55;;;;;;;28.15;10.88;;;6.60;99.90;;;;;;5092730;28;20523;-61
2021/12/14 09:39:27;;;;;;;25.20;11.38;;;6.60;99.90;;;;;;5092616;28;20176;-61
2021/12/14 09:41:53;;;;;;;28.60;12.05;;;6.50;99.90;;;;;;5092436;28;20263;-61
2021/12/14 09:44:25;;;;;;;24.30;11.00;;;6.60;99.90;;;;;;5092221;28;20245;-61
2021/12/14 09:46:52;;;;;;;18.52;9.10;;;6.60;99.90;;;;;;5092573;28;20195;-61
2021/12/14 09:49:17;;;;;;;22.77;10.45;;;6.60;99.90;;;;;;5092323;28;20176;-61
2021/12/14 09:51:58;;;;;;;20.70;9.65;;;6.60;99.90;;;;;;5092326;28;20175;-61
2021/12/14 09:54:26;;;;;;;30.15;13.40;;;6.60;99.90;;;;;;5091297;28;20207;-61
2021/12/14 09:56:58;;;;;;;19.67;10.30;;;6.60;99.90;;;;;;5092276;28;20300;-61
2021/12/14 09:59:23;;;;;;;25.77;11.63;;;6.60;99.90;;;;;;5092278;28;20182;-61
2021/12/14 10:02:00;;;;;;;19.33;9.00;;;6.60;99.90;;;;;;5092263;28;20264;-61
2021/12/14 10:04:33;;;;;;;21.20;10.30;;;6.60;99.90;;;;;;5092203;28;20241;-61
2021/12/14 10:07:03;;;;;;;21.50;10.65;;;6.60;99.90;;;;;;5092175;28;20207;-60
2021/12/14 10:09:37;;;;;;;20.27;9.93;;;6.60;99.90;;;;;;5092137;28;20221;-61
2021/12/14 10:12:18;;;;;;;20.20;9.70;;;6.60;99.90;;;;;;5090798;28;20175;-61
2021/12/14 10:14:47;;;;;;;22.63;10.68;;;6.60;99.90;;;;;;5090962;28;20270;-61
2021/12/14 10:17:15;;;;;;;19.75;9.95;;;6.60;99.90;;;;;;5091926;28;20690;-61
2021/12/14 10:19:43;;;;;;;21.42;9.77;;;6.60;99.90;;;;;;5091983;28;20657;-61
2021/12/14 10:22:23;;;;;;;21.33;10.32;;;6.60;99.90;;;;;;5091993;28;20537;-61
2021/12/14 10:24:51;;;;;;;20.38;10.35;;;6.60;99.90;;;;;;5090957;28;20164;-61
2021/12/14 10:27:35;;;;;;;23.77;11.20;;;6.50;99.90;;;;;;5091762;28;20188;-62
2021/12/14 10:30:15;;;;;;;25.20;12.25;;;6.50;99.90;;;;;;5092001;28;20266;-61
2021/12/14 10:32:41;;;;;;;23.10;11.02;;;6.50;99.90;;;;;;5091828;28;20215;-61
2021/12/14 10:35:16;;;;;;;23.42;11.65;;;6.50;99.90;;;;;;5091870;28;20365;-61
2021/12/14 10:37:53;;;;;;;20.65;10.25;;;6.60;99.90;;;;;;5091888;28;20172;-61
2021/12/14 10:43:26;;;;;;;22.02;11.32;;;6.70;99.90;;;;;;5091772;28;20615;-61
2021/12/14 10:45:57;;;;;;;21.40;11.15;;;6.80;99.90;;;;;;5091852;28;20172;-61
2021/12/14 10:48:26;;;;;;;25.20;12.98;;;6.70;99.90;;;;;;5091773;28;20183;-61
2021/12/14 10:50:54;;;;;;;20.15;11.15;;;6.50;99.90;;;;;;5091774;28;20168;-61
2021/12/14 10:53:21;;;;;;;25.85;12.50;;;6.40;99.90;;;;;;5091475;28;20227;-61
2021/12/14 10:55:56;;;;;;;28.02;12.68;;;6.40;99.90;;;;;;5092828;28;20238;-61
2021/12/14 10:58:25;;;;;;;23.33;11.70;;;6.40;99.90;;;;;;5095535;28;20187;-61
2021/12/14 11:00:56;;;;;;;25.17;12.20;;;6.40;99.90;;;;;;5095172;28;20229;-61
2021/12/14 11:03:28;;;;;;;23.80;11.57;;;6.30;99.90;;;;;;5095151;28;20250;-61
2021/12/14 11:06:00;;;;;;;27.83;13.10;;;6.30;99.90;;;;;;5095491;28;20195;-61
2021/12/14 11:08:47;;;;;;;23.65;11.68;;;6.40;99.90;;;;;;5095395;28;20180;-61
2021/12/14 11:11:20;;;;;;;23.00;11.40;;;6.40;99.90;;;;;;5095560;28;20176;-61
2021/12/14 11:13:55;;;;;;;28.17;12.82;;;6.50;99.90;;;;;;5095435;28;20219;-59
2021/12/14 11:19:36;;;;;;;28.45;12.25;;;6.50;99.90;;;;;;5095579;28;20228;-59
2021/12/14 11:22:13;;;;;;;26.80;10.55;;;6.60;99.90;;;;;;5095279;28;20180;-60
2021/12/14 11:24:42;;;;;;;33.40;15.10;;;6.60;99.90;;;;;;5095002;28;20661;-59
2021/12/14 11:27:19;;;;;;;25.20;11.75;;;6.50;99.90;;;;;;5095083;28;20726;-59
2021/12/14 11:29:49;;;;;;;20.42;10.30;;;6.50;99.90;;;;;;5095001;28;20654;-60
2021/12/14 11:32:24;;;;;;;26.33;11.55;;;6.40;99.90;;;;;;5094944;28;20199;-60
2021/12/14 11:34:50;;;;;;;24.92;12.43;;;6.30;99.90;;;;;;5094908;28;20703;-60
2021/12/14 11:37:21;;;;;;;23.35;11.65;;;6.30;99.90;;;;;;5094764;28;20180;-60
2021/12/14 11:39:50;;;;;;;22.58;10.95;;;6.30;99.90;;;;;;5095030;28;20175;-60
2021/12/14 11:42:18;;;;;;;24.42;12.30;;;6.30;99.90;;;;;;5094772;28;20187;-60
2021/12/14 11:44:54;;;;;;;23.73;11.73;;;6.30;99.90;;;;;;5094873;28;20168;-60
2021/12/14 11:49:57;;;;;;;22.98;11.45;;;6.20;99.90;;;;;;5094942;28;20176;-60
2021/12/14 11:53:00;;;;;;;27.80;12.60;;;6.00;99.90;;;;;;5094496;28;20303;-61
2021/12/14 11:55:47;;;;;;;26.75;11.73;;;6.00;99.90;;;;;;5094317;28;20190;-61
2021/12/14 11:58:36;;;;;;;28.15;12.50;;;6.00;99.90;;;;;;5094656;28;20176;-61
2021/12/14 12:01:08;;;;;;;27.92;12.32;;;6.00;99.90;;;;;;5094668;28;20172;-60
2021/12/14 12:03:36;;;;;;;26.05;13.30;;;6.10;99.90;;;;;;5094398;28;20258;-61
2021/12/14 12:06:14;;;;;;;28.50;12.88;;;6.10;99.90;;;;;;5094559;28;20258;-61
2021/12/14 12:11:42;;;;;;;26.92;12.48;;;6.20;99.90;;;;;;5094371;28;20684;-61
2021/12/14 12:14:40;;;;;;;29.02;13.48;;;6.20;99.90;;;;;;5094569;28;20288;-61
2021/12/14 12:17:18;;;;;;;29.55;13.57;;;6.20;99.90;;;;;;5094262;28;20171;-61
2021/12/14 12:20:05;;;;;;;34.33;14.02;;;6.20;99.90;;;;;;5092753;28;20274;-60
2021/12/14 12:22:38;;;;;;;32.60;14.20;;;6.10;99.90;;;;;;5094185;28;20630;-61
2021/12/14 12:25:08;;;;;;;27.30;12.85;;;6.10;99.90;;;;;;5094103;28;20224;-61
2021/12/14 12:27:45;;;;;;;30.73;14.27;;;6.10;99.90;;;;;;5093777;28;20233;-61
2021/12/14 12:32:54;;;;;;;29.67;14.48;;;6.00;99.90;;;;;;5093954;28;20204;-61
2021/12/14 12:35:38;;;;;;;31.15;13.57;;;6.00;99.90;;;;;;5093630;28;20643;-60
2021/12/14 12:38:28;;;;;;;38.20;16.10;;;5.90;99.90;;;;;;5093770;28;20665;-61
2021/12/14 12:41:16;;;;;;;33.35;15.32;;;5.80;99.90;;;;;;5093803;28;20627;-61
2021/12/14 12:44:05;;;;;;;40.60;17.00;;;5.80;99.90;;;;;;5093750;28;20175;-60
2021/12/14 12:46:51;;;;;;;35.95;15.70;;;5.90;99.90;;;;;;5085408;28;20267;-61
2021/12/14 12:49:21;;;;;;;35.22;14.80;;;5.90;99.90;;;;;;5093699;28;20565;-61
2021/12/14 12:51:52;;;;;;;37.03;15.82;;;6.00;99.90;;;;;;5093618;28;20261;-61
2021/12/14 12:54:45;;;;;;;35.47;16.00;;;6.10;99.90;;;;;;5093221;28;20226;-62
2021/12/14 12:57:32;;;;;;;34.78;16.08;;;6.00;99.90;;;;;;5093316;28;20642;-61
2021/12/14 13:00:44;;;;;;;37.38;16.90;;;6.00;99.90;;;;;;5093456;28;20278;-61
2021/12/14 13:03:17;;;;;;;35.35;15.48;;;6.00;99.90;;;;;;5030962;28;20615;-61
2021/12/14 13:05:56;;;;;;;32.58;15.00;;;6.00;99.90;;;;;;5030922;28;20619;-61
2021/12/14 13:08:25;;;;;;;39.95;16.45;;;6.10;99.90;;;;;;5072014;28;20192;-61
2021/12/14 13:11:04;;;;;;;29.80;15.15;;;6.10;99.90;;;;;;5093068;28;20647;-61
2021/12/14 13:13:52;;;;;;;37.53;15.38;;;6.10;99.90;;;;;;5092887;28;20245;-61
2021/12/14 13:16:23;;;;;;;34.80;14.98;;;6.10;99.90;;;;;;5092839;28;20680;-61
2021/12/14 13:18:54;;;;;;;36.58;16.90;;;6.10;99.90;;;;;;5091463;28;20180;-61
2021/12/14 13:21:29;;;;;;;41.65;16.60;;;6.00;99.90;;;;;;5092799;28;20164;-61
2021/12/14 13:24:21;;;;;;;34.42;15.23;;;6.00;99.90;;;;;;5092968;28;20572;-61
2021/12/14 13:26:47;;;;;;;44.67;21.73;;;6.00;99.90;;;;;;5092946;28;20184;-61
2021/12/14 13:29:12;;;;;;;38.53;16.85;;;6.00;99.90;;;;;;5092890;28;20172;-61
2021/12/14 13:31:46;;;;;;;38.15;16.90;;;6.10;99.90;;;;;;5092761;28;20180;-61
2021/12/14 13:34:19;;;;;;;35.13;15.95;;;6.20;99.90;;;;;;5092778;28;20268;-61
2021/12/14 13:36:46;;;;;;;37.70;15.43;;;6.20;99.90;;;;;;5091532;28;20529;-61
2021/12/14 13:39:14;;;;;;;31.63;13.93;;;6.30;99.90;;;;;;5092731;28;20196;-61
2021/12/14 13:41:58;;;;;;;28.77;14.40;;;6.30;99.90;;;;;;5092458;28;20176;-61
2021/12/14 13:44:27;;;;;;;32.72;14.15;;;6.20;99.90;;;;;;5092553;28;20174;-61
2021/12/14 13:47:22;;;;;;;34.70;14.50;;;6.20;99.90;;;;;;5092638;28;20176;-61
2021/12/14 13:49:48;;;;;;;34.05;15.43;;;6.20;99.90;;;;;;5085559;28;20594;-60
2021/12/14 13:52:16;;;;;;;32.28;14.65;;;6.20;99.90;;;;;;5092424;28;20700;-61
2021/12/14 13:55:12;;;;;;;34.22;15.63;;;6.20;99.90;;;;;;5092327;28;20267;-61
2021/12/14 13:57:43;;;;;;;33.13;15.63;;;6.20;99.90;;;;;;5091960;28;20228;-61
2021/12/14 14:00:16;;;;;;;43.05;18.23;;;6.20;99.90;;;;;;5092314;28;20669;-61
2021/12/14 14:02:42;;;;;;;40.65;18.20;;;6.30;99.90;;;;;;5092464;28;20172;-59